sensor_id;sensor_type;location;lat;lon;timestamp;temperature;humidity
29093;DHT22;16167;48.768;14.984;2023-04-24T00:00:11;7.40;99.90
29093;DHT22;16167;48.768;14.984;2023-04-24T00:02:41;7.50;99.90
29093;DHT22;16167;48.768;14.984;2023-04-24T00:05:14;7.40;99.90
29093;DHT22;16167;48.768;14.984;2023-04-24T00:07:42;7.40;99.90
29093;DHT22;16167;48.768;14.984;2023-04-24T00:10:11;7.40;99.90
29093;DHT22;16167;48.768;14.984;2023-04-24T00:12:39;7.30;99.90
29093;DHT22;16167;48.768;14.984;2023-04-24T00:15:10;7.30;99.90
29093;DHT22;16167;48.768;14.984;2023-04-24T00:17:38;7.30;99.90
29093;DHT22;16167;48.768;14.984;2023-04-24T00:20:06;7.20;99.90
29093;DHT22;16167;48.768;14.984;2023-04-24T00:22:34;7.20;99.90
29093;DHT22;16167;48.768;14.984;2023-04-24T00:25:02;7.10;99.90
29093;DHT22;16167;48.768;14.984;2023-04-24T00:27:30;7.10;99.90
29093;DHT22;16167;48.768;14.984;2023-04-24T00:29:58;7.10;99.90
29093;DHT22;16167;48.768;14.984;2023-04-24T00:32:28;7.10;99.90
29093;DHT22;16167;48.768;14.984;2023-04-24T00:34:56;7.00;99.90
29093;DHT22;16167;48.768;14.984;2023-04-24T00:37:24;7.00;99.90
29093;DHT22;16167;48.768;14.984;2023-04-24T00:39:52;6.90;99.90
29093;DHT22;16167;48.768;14.984;2023-04-24T00:42:20;6.90;99.90
29093;DHT22;16167;48.768;14.984;2023-04-24T00:44:47;6.80;99.90
29093;DHT22;16167;48.768;14.984;2023-04-24T00:47:16;7.00;99.90
29093;DHT22;16167;48.768;14.984;2023-04-24T00:49:45;6.90;99.90
29093;DHT22;16167;48.768;14.984;2023-04-24T00:52:13;7.00;99.90
29093;DHT22;16167;48.768;14.984;2023-04-24T00:54:44;7.00;99.90
29093;DHT22;16167;48.768;14.984;2023-04-24T00:57:12;6.90;99.90
29093;DHT22;16167;48.768;14.984;2023-04-24T00:59:41;6.90;99.90
29093;DHT22;16167;48.768;14.984;2023-04-24T01:02:09;6.80;99.90
29093;DHT22;16167;48.768;14.984;2023-04-24T01:04:38;6.80;99.90
29093;DHT22;16167;48.768;14.984;2023-04-24T01:07:09;6.80;99.90
29093;DHT22;16167;48.768;14.984;2023-04-24T01:09:38;6.90;99.90
29093;DHT22;16167;48.768;14.984;2023-04-24T01:12:08;6.90;99.90
29093;DHT22;16167;48.768;14.984;2023-04-24T01:14:36;6.90;99.90
29093;DHT22;16167;48.768;14.984;2023-04-24T01:17:05;6.90;99.90
29093;DHT22;16167;48.768;14.984;2023-04-24T01:19:34;6.90;99.90
29093;DHT22;16167;48.768;14.984;2023-04-24T01:22:02;6.90;99.90
29093;DHT22;16167;48.768;14.984;2023-04-24T01:24:32;6.90;99.90
29093;DHT22;16167;48.768;14.984;2023-04-24T01:26:59;6.90;99.90
29093;DHT22;16167;48.768;14.984;2023-04-24T01:29:27;6.90;99.90
29093;DHT22;16167;48.768;14.984;2023-04-24T01:31:55;6.90;99.90
29093;DHT22;16167;48.768;14.984;2023-04-24T01:34:25;6.90;99.90
29093;DHT22;16167;48.768;14.984;2023-04-24T01:36:53;6.90;99.90
29093;DHT22;16167;48.768;14.984;2023-04-24T01:39:21;6.90;99.90
29093;DHT22;16167;48.768;14.984;2023-04-24T01:41:51;6.90;99.90
29093;DHT22;16167;48.768;14.984;2023-04-24T01:44:19;7.00;99.90
29093;DHT22;16167;48.768;14.984;2023-04-24T01:46:46;7.00;99.90
29093;DHT22;16167;48.768;14.984;2023-04-24T01:49:14;7.10;99.90
29093;DHT22;16167;48.768;14.984;2023-04-24T01:51:42;7.10;99.90
29093;DHT22;16167;48.768;14.984;2023-04-24T01:54:11;7.20;99.90
29093;DHT22;16167;48.768;14.984;2023-04-24T01:56:39;7.20;99.90
29093;DHT22;16167;48.768;14.984;2023-04-24T01:59:10;7.20;99.90
29093;DHT22;16167;48.768;14.984;2023-04-24T02:01:38;7.40;99.90
29093;DHT22;16167;48.768;14.984;2023-04-24T02:04:06;7.40;99.90
29093;DHT22;16167;48.768;14.984;2023-04-24T02:06:35;7.40;99.90
29093;DHT22;16167;48.768;14.984;2023-04-24T02:09:03;7.40;99.90
29093;DHT22;16167;48.768;14.984;2023-04-24T02:11:31;7.50;99.90
29093;DHT22;16167;48.768;14.984;2023-04-24T02:13:59;7.60;99.90
29093;DHT22;16167;48.768;14.984;2023-04-24T02:16:29;7.60;99.90
29093;DHT22;16167;48.768;14.984;2023-04-24T02:18:58;7.70;99.90
29093;DHT22;16167;48.768;14.984;2023-04-24T02:21:26;7.70;99.90
29093;DHT22;16167;48.768;14.984;2023-04-24T02:23:55;7.70;99.90
29093;DHT22;16167;48.768;14.984;2023-04-24T02:26:22;7.70;99.90
29093;DHT22;16167;48.768;14.984;2023-04-24T02:28:51;7.70;99.90
29093;DHT22;16167;48.768;14.984;2023-04-24T02:31:19;7.70;99.90
29093;DHT22;16167;48.768;14.984;2023-04-24T02:33:48;7.70;99.90
29093;DHT22;16167;48.768;14.984;2023-04-24T02:36:16;7.70;99.90
29093;DHT22;16167;48.768;14.984;2023-04-24T02:38:44;7.70;99.90
29093;DHT22;16167;48.768;14.984;2023-04-24T02:41:12;7.70;99.90
29093;DHT22;16167;48.768;14.984;2023-04-24T02:43:40;7.70;99.90
29093;DHT22;16167;48.768;14.984;2023-04-24T02:46:08;7.70;99.90
29093;DHT22;16167;48.768;14.984;2023-04-24T02:48:36;7.70;99.90
29093;DHT22;16167;48.768;14.984;2023-04-24T02:51:05;7.70;99.90
29093;DHT22;16167;48.768;14.984;2023-04-24T02:53:34;7.70;99.90
29093;DHT22;16167;48.768;14.984;2023-04-24T02:56:02;7.70;99.90
29093;DHT22;16167;48.768;14.984;2023-04-24T02:58:30;7.80;99.90
29093;DHT22;16167;48.768;14.984;2023-04-24T03:00:58;7.80;99.90
29093;DHT22;16167;48.768;14.984;2023-04-24T03:03:25;7.70;99.90
29093;DHT22;16167;48.768;14.984;2023-04-24T03:05:54;7.70;99.90
29093;DHT22;16167;48.768;14.984;2023-04-24T03:08:23;7.70;99.90
29093;DHT22;16167;48.768;14.984;2023-04-24T03:10:51;7.70;99.90
29093;DHT22;16167;48.768;14.984;2023-04-24T03:13:19;7.60;98.60
29093;DHT22;16167;48.768;14.984;2023-04-24T03:15:47;7.60;97.70
29093;DHT22;16167;48.768;14.984;2023-04-24T03:18:15;7.60;99.30
29093;DHT22;16167;48.768;14.984;2023-04-24T03:20:45;7.60;99.50
29093;DHT22;16167;48.768;14.984;2023-04-24T03:23:13;7.50;98.50
29093;DHT22;16167;48.768;14.984;2023-04-24T03:25:42;7.50;98.20
29093;DHT22;16167;48.768;14.984;2023-04-24T03:28:10;7.40;97.00
29093;DHT22;16167;48.768;14.984;2023-04-24T03:30:38;7.40;97.90
29093;DHT22;16167;48.768;14.984;2023-04-24T03:33:06;7.40;99.90
29093;DHT22;16167;48.768;14.984;2023-04-24T03:35:33;7.40;99.90
29093;DHT22;16167;48.768;14.984;2023-04-24T03:38:02;7.50;99.90
29093;DHT22;16167;48.768;14.984;2023-04-24T03:40:31;7.40;99.90
29093;DHT22;16167;48.768;14.984;2023-04-24T03:43:01;7.40;99.90
29093;DHT22;16167;48.768;14.984;2023-04-24T03:45:29;7.40;99.90
29093;DHT22;16167;48.768;14.984;2023-04-24T03:47:57;7.40;99.90
29093;DHT22;16167;48.768;14.984;2023-04-24T03:50:25;7.40;99.90
29093;DHT22;16167;48.768;14.984;2023-04-24T03:52:55;7.30;99.90
29093;DHT22;16167;48.768;14.984;2023-04-24T03:55:23;7.30;99.90
29093;DHT22;16167;48.768;14.984;2023-04-24T03:57:51;7.30;99.50
29093;DHT22;16167;48.768;14.984;2023-04-24T04:00:20;7.20;99.50
29093;DHT22;16167;48.768;14.984;2023-04-24T04:02:48;7.20;98.90
29093;DHT22;16167;48.768;14.984;2023-04-24T04:05:16;7.20;99.30
29093;DHT22;16167;48.768;14.984;2023-04-24T04:07:44;7.20;99.90
29093;DHT22;16167;48.768;14.984;2023-04-24T04:10:12;7.30;99.90
29093;DHT22;16167;48.768;14.984;2023-04-24T04:12:40;7.20;99.90
29093;DHT22;16167;48.768;14.984;2023-04-24T04:15:08;7.20;99.90
29093;DHT22;16167;48.768;14.984;2023-04-24T04:17:38;7.30;99.90
29093;DHT22;16167;48.768;14.984;2023-04-24T04:20:07;7.30;99.90
29093;DHT22;16167;48.768;14.984;2023-04-24T04:22:36;7.30;99.90
29093;DHT22;16167;48.768;14.984;2023-04-24T04:25:04;7.30;99.90
29093;DHT22;16167;48.768;14.984;2023-04-24T04:27:33;7.40;99.90
29093;DHT22;16167;48.768;14.984;2023-04-24T04:30:01;7.50;99.90
29093;DHT22;16167;48.768;14.984;2023-04-24T04:32:31;7.50;99.90
29093;DHT22;16167;48.768;14.984;2023-04-24T04:35:01;7.60;99.90
29093;DHT22;16167;48.768;14.984;2023-04-24T04:37:30;7.70;99.90
29093;DHT22;16167;48.768;14.984;2023-04-24T04:39:57;7.70;99.90
29093;DHT22;16167;48.768;14.984;2023-04-24T04:42:25;7.70;99.90
29093;DHT22;16167;48.768;14.984;2023-04-24T04:44:54;7.80;99.90
29093;DHT22;16167;48.768;14.984;2023-04-24T04:47:24;7.80;99.90
29093;DHT22;16167;48.768;14.984;2023-04-24T04:49:53;7.90;99.90
29093;DHT22;16167;48.768;14.984;2023-04-24T04:52:22;7.90;99.90
29093;DHT22;16167;48.768;14.984;2023-04-24T04:54:53;8.00;99.90
29093;DHT22;16167;48.768;14.984;2023-04-24T04:57:21;8.00;99.90
29093;DHT22;16167;48.768;14.984;2023-04-24T04:59:49;8.00;99.90
29093;DHT22;16167;48.768;14.984;2023-04-24T05:02:16;8.10;99.90
29093;DHT22;16167;48.768;14.984;2023-04-24T05:04:45;8.10;99.90
29093;DHT22;16167;48.768;14.984;2023-04-24T05:07:13;8.10;99.90
29093;DHT22;16167;48.768;14.984;2023-04-24T05:09:42;8.20;99.90
29093;DHT22;16167;48.768;14.984;2023-04-24T05:12:11;8.20;99.90
29093;DHT22;16167;48.768;14.984;2023-04-24T05:14:39;8.20;99.90
29093;DHT22;16167;48.768;14.984;2023-04-24T05:17:07;8.30;99.90
29093;DHT22;16167;48.768;14.984;2023-04-24T05:19:35;8.30;99.90
29093;DHT22;16167;48.768;14.984;2023-04-24T05:22:04;8.30;99.90
29093;DHT22;16167;48.768;14.984;2023-04-24T05:24:33;8.40;99.90
29093;DHT22;16167;48.768;14.984;2023-04-24T05:27:03;8.40;99.90
29093;DHT22;16167;48.768;14.984;2023-04-24T05:29:31;8.50;99.90
29093;DHT22;16167;48.768;14.984;2023-04-24T05:32:00;8.50;99.90
29093;DHT22;16167;48.768;14.984;2023-04-24T05:34:28;8.50;99.90
29093;DHT22;16167;48.768;14.984;2023-04-24T05:36:56;8.50;99.90
29093;DHT22;16167;48.768;14.984;2023-04-24T05:39:23;8.50;99.90
29093;DHT22;16167;48.768;14.984;2023-04-24T05:41:52;8.60;99.90
29093;DHT22;16167;48.768;14.984;2023-04-24T05:44:21;8.60;99.90
29093;DHT22;16167;48.768;14.984;2023-04-24T05:46:49;8.60;99.90
29093;DHT22;16167;48.768;14.984;2023-04-24T05:49:17;8.70;99.90
29093;DHT22;16167;48.768;14.984;2023-04-24T05:51:45;8.70;99.90
29093;DHT22;16167;48.768;14.984;2023-04-24T05:54:13;8.70;99.90
29093;DHT22;16167;48.768;14.984;2023-04-24T05:56:41;8.80;99.90
29093;DHT22;16167;48.768;14.984;2023-04-24T05:59:09;8.80;99.90
29093;DHT22;16167;48.768;14.984;2023-04-24T06:01:38;8.90;99.90
29093;DHT22;16167;48.768;14.984;2023-04-24T06:04:06;8.90;99.90
29093;DHT22;16167;48.768;14.984;2023-04-24T06:06:34;9.00;99.90
29093;DHT22;16167;48.768;14.984;2023-04-24T06:09:02;9.00;99.90
29093;DHT22;16167;48.768;14.984;2023-04-24T06:11:31;9.10;99.90
29093;DHT22;16167;48.768;14.984;2023-04-24T06:13:59;9.10;99.90
29093;DHT22;16167;48.768;14.984;2023-04-24T06:16:27;9.10;99.90
29093;DHT22;16167;48.768;14.984;2023-04-24T06:18:56;9.20;99.90
29093;DHT22;16167;48.768;14.984;2023-04-24T06:21:24;9.20;99.90
29093;DHT22;16167;48.768;14.984;2023-04-24T06:23:52;9.20;99.90
29093;DHT22;16167;48.768;14.984;2023-04-24T06:26:20;9.20;99.90
29093;DHT22;16167;48.768;14.984;2023-04-24T06:28:48;9.30;99.90
29093;DHT22;16167;48.768;14.984;2023-04-24T06:31:17;9.30;99.90
29093;DHT22;16167;48.768;14.984;2023-04-24T06:33:44;9.30;99.90
29093;DHT22;16167;48.768;14.984;2023-04-24T06:36:14;9.30;99.90
29093;DHT22;16167;48.768;14.984;2023-04-24T06:38:42;9.40;99.90
29093;DHT22;16167;48.768;14.984;2023-04-24T06:41:10;9.40;99.90
29093;DHT22;16167;48.768;14.984;2023-04-24T06:43:38;9.40;99.90
29093;DHT22;16167;48.768;14.984;2023-04-24T06:46:05;9.50;99.90
29093;DHT22;16167;48.768;14.984;2023-04-24T06:48:33;9.60;99.90
29093;DHT22;16167;48.768;14.984;2023-04-24T06:51:01;9.60;99.90
29093;DHT22;16167;48.768;14.984;2023-04-24T06:53:31;9.60;99.90
29093;DHT22;16167;48.768;14.984;2023-04-24T06:55:58;9.70;99.90
29093;DHT22;16167;48.768;14.984;2023-04-24T06:58:27;9.80;99.90
29093;DHT22;16167;48.768;14.984;2023-04-24T07:00:54;9.90;99.90
29093;DHT22;16167;48.768;14.984;2023-04-24T07:03:22;9.90;99.90
29093;DHT22;16167;48.768;14.984;2023-04-24T07:05:51;9.90;99.90
29093;DHT22;16167;48.768;14.984;2023-04-24T07:08:19;10.00;99.90
29093;DHT22;16167;48.768;14.984;2023-04-24T07:10:50;10.10;99.90
29093;DHT22;16167;48.768;14.984;2023-04-24T07:13:18;10.20;99.90
29093;DHT22;16167;48.768;14.984;2023-04-24T07:15:46;10.30;99.90
29093;DHT22;16167;48.768;14.984;2023-04-24T07:18:15;10.40;99.90
29093;DHT22;16167;48.768;14.984;2023-04-24T07:20:43;10.50;99.90
29093;DHT22;16167;48.768;14.984;2023-04-24T07:23:11;10.60;99.90
29093;DHT22;16167;48.768;14.984;2023-04-24T07:25:39;10.70;99.90
29093;DHT22;16167;48.768;14.984;2023-04-24T07:28:09;10.70;99.90
29093;DHT22;16167;48.768;14.984;2023-04-24T07:30:36;10.80;98.90
29093;DHT22;16167;48.768;14.984;2023-04-24T07:33:04;10.80;98.80
29093;DHT22;16167;48.768;14.984;2023-04-24T07:35:33;10.90;97.30
29093;DHT22;16167;48.768;14.984;2023-04-24T07:38:01;10.90;97.40
29093;DHT22;16167;48.768;14.984;2023-04-24T07:40:29;11.00;95.50
29093;DHT22;16167;48.768;14.984;2023-04-24T07:42:57;11.00;96.00
29093;DHT22;16167;48.768;14.984;2023-04-24T07:45:27;11.00;96.60
29093;DHT22;16167;48.768;14.984;2023-04-24T07:47:55;11.10;95.10
29093;DHT22;16167;48.768;14.984;2023-04-24T07:50:23;11.10;94.50
29093;DHT22;16167;48.768;14.984;2023-04-24T07:52:51;11.20;94.70
29093;DHT22;16167;48.768;14.984;2023-04-24T07:55:19;11.30;93.60
29093;DHT22;16167;48.768;14.984;2023-04-24T07:57:51;11.40;94.30
29093;DHT22;16167;48.768;14.984;2023-04-24T08:00:19;11.50;95.90
29093;DHT22;16167;48.768;14.984;2023-04-24T08:02:49;11.60;91.50
29093;DHT22;16167;48.768;14.984;2023-04-24T08:05:17;11.70;95.30
29093;DHT22;16167;48.768;14.984;2023-04-24T08:07:45;11.70;95.80
29093;DHT22;16167;48.768;14.984;2023-04-24T08:10:15;11.80;96.10
29093;DHT22;16167;48.768;14.984;2023-04-24T08:12:43;11.80;95.80
29093;DHT22;16167;48.768;14.984;2023-04-24T08:15:10;11.70;91.50
29093;DHT22;16167;48.768;14.984;2023-04-24T08:17:38;11.70;90.60
29093;DHT22;16167;48.768;14.984;2023-04-24T08:20:08;11.60;90.10
29093;DHT22;16167;48.768;14.984;2023-04-24T08:22:40;11.50;91.00
29093;DHT22;16167;48.768;14.984;2023-04-24T08:25:08;11.50;91.20
29093;DHT22;16167;48.768;14.984;2023-04-24T08:27:36;11.40;58.40
29093;DHT22;16167;48.768;14.984;2023-04-24T08:30:06;11.40;55.80
29093;DHT22;16167;48.768;14.984;2023-04-24T08:32:34;11.30;60.90
29093;DHT22;16167;48.768;14.984;2023-04-24T08:35:02;11.30;68.00
29093;DHT22;16167;48.768;14.984;2023-04-24T08:37:31;11.30;64.10
29093;DHT22;16167;48.768;14.984;2023-04-24T08:40:00;11.40;73.40
29093;DHT22;16167;48.768;14.984;2023-04-24T08:42:28;11.40;80.40
29093;DHT22;16167;48.768;14.984;2023-04-24T08:44:59;11.50;76.30
29093;DHT22;16167;48.768;14.984;2023-04-24T08:47:27;11.60;82.00
29093;DHT22;16167;48.768;14.984;2023-04-24T08:49:56;11.60;76.60
29093;DHT22;16167;48.768;14.984;2023-04-24T08:52:26;11.60;76.10
29093;DHT22;16167;48.768;14.984;2023-04-24T08:54:56;11.70;80.00
29093;DHT22;16167;48.768;14.984;2023-04-24T08:57:24;11.80;79.80
29093;DHT22;16167;48.768;14.984;2023-04-24T08:59:52;11.90;81.90
29093;DHT22;16167;48.768;14.984;2023-04-24T09:02:20;12.00;90.60
29093;DHT22;16167;48.768;14.984;2023-04-24T09:04:49;12.00;68.70
29093;DHT22;16167;48.768;14.984;2023-04-24T09:07:17;12.10;58.90
29093;DHT22;16167;48.768;14.984;2023-04-24T09:09:45;12.20;62.80
29093;DHT22;16167;48.768;14.984;2023-04-24T09:12:15;12.30;66.40
29093;DHT22;16167;48.768;14.984;2023-04-24T09:14:43;12.40;69.90
29093;DHT22;16167;48.768;14.984;2023-04-24T09:17:12;12.50;63.50
29093;DHT22;16167;48.768;14.984;2023-04-24T09:19:40;12.60;68.20
29093;DHT22;16167;48.768;14.984;2023-04-24T09:22:09;12.70;61.10
29093;DHT22;16167;48.768;14.984;2023-04-24T09:24:37;12.70;57.50
29093;DHT22;16167;48.768;14.984;2023-04-24T09:27:06;12.80;74.10
29093;DHT22;16167;48.768;14.984;2023-04-24T09:29:38;13.00;64.70
29093;DHT22;16167;48.768;14.984;2023-04-24T09:32:18;13.00;59.40
29093;DHT22;16167;48.768;14.984;2023-04-24T09:34:48;13.10;55.60
29093;DHT22;16167;48.768;14.984;2023-04-24T09:37:27;13.10;44.40
29093;DHT22;16167;48.768;14.984;2023-04-24T09:40:07;13.10;37.90
29093;DHT22;16167;48.768;14.984;2023-04-24T09:42:35;13.20;41.70
29093;DHT22;16167;48.768;14.984;2023-04-24T09:45:05;13.10;41.00
29093;DHT22;16167;48.768;14.984;2023-04-24T09:47:38;13.10;38.70
29093;DHT22;16167;48.768;14.984;2023-04-24T09:50:14;13.20;26.40
29093;DHT22;16167;48.768;14.984;2023-04-24T09:52:46;13.30;29.60
29093;DHT22;16167;48.768;14.984;2023-04-24T09:55:15;13.50;30.80
29093;DHT22;16167;48.768;14.984;2023-04-24T09:57:47;13.60;41.30
29093;DHT22;16167;48.768;14.984;2023-04-24T10:00:19;13.80;39.50
29093;DHT22;16167;48.768;14.984;2023-04-24T10:02:49;13.90;34.70
29093;DHT22;16167;48.768;14.984;2023-04-24T10:05:17;14.00;42.70
29093;DHT22;16167;48.768;14.984;2023-04-24T10:07:45;14.20;43.80
29093;DHT22;16167;48.768;14.984;2023-04-24T10:10:15;14.20;31.80
29093;DHT22;16167;48.768;14.984;2023-04-24T10:12:43;14.30;42.80
29093;DHT22;16167;48.768;14.984;2023-04-24T10:15:11;14.30;19.70
29093;DHT22;16167;48.768;14.984;2023-04-24T10:17:41;14.20;15.70
29093;DHT22;16167;48.768;14.984;2023-04-24T10:20:10;14.10;17.50
29093;DHT22;16167;48.768;14.984;2023-04-24T10:22:38;13.60;25.70
29093;DHT22;16167;48.768;14.984;2023-04-24T10:25:06;13.50;18.50
29093;DHT22;16167;48.768;14.984;2023-04-24T10:27:34;13.40;22.50
29093;DHT22;16167;48.768;14.984;2023-04-24T10:30:02;13.40;15.00
29093;DHT22;16167;48.768;14.984;2023-04-24T10:32:30;13.40;8.50
29093;DHT22;16167;48.768;14.984;2023-04-24T10:35:00;13.50;12.80
29093;DHT22;16167;48.768;14.984;2023-04-24T10:37:28;13.60;9.90
29093;DHT22;16167;48.768;14.984;2023-04-24T10:40:03;13.70;11.40
29093;DHT22;16167;48.768;14.984;2023-04-24T10:42:31;13.90;7.40
29093;DHT22;16167;48.768;14.984;2023-04-24T10:44:58;14.00;14.40
29093;DHT22;16167;48.768;14.984;2023-04-24T10:47:28;14.20;17.00
29093;DHT22;16167;48.768;14.984;2023-04-24T10:50:00;14.40;12.80
29093;DHT22;16167;48.768;14.984;2023-04-24T10:52:43;14.40;15.00
29093;DHT22;16167;48.768;14.984;2023-04-24T10:55:12;14.60;18.50
29093;DHT22;16167;48.768;14.984;2023-04-24T10:57:40;14.50;38.40
29093;DHT22;16167;48.768;14.984;2023-04-24T11:00:28;14.40;43.80
29093;DHT22;16167;48.768;14.984;2023-04-24T11:02:56;14.60;27.80
29093;DHT22;16167;48.768;14.984;2023-04-24T11:08:12;14.90;49.50
29093;DHT22;16167;48.768;14.984;2023-04-24T11:10:40;14.80;48.10
29093;DHT22;16167;48.768;14.984;2023-04-24T11:13:08;14.70;52.60
29093;DHT22;16167;48.768;14.984;2023-04-24T11:15:38;14.80;28.80
29093;DHT22;16167;48.768;14.984;2023-04-24T11:18:12;14.80;24.90
29093;DHT22;16167;48.768;14.984;2023-04-24T11:20:41;15.10;38.70
29093;DHT22;16167;48.768;14.984;2023-04-24T11:23:09;15.30;31.70
29093;DHT22;16167;48.768;14.984;2023-04-24T11:25:41;15.50;57.40
29093;DHT22;16167;48.768;14.984;2023-04-24T11:28:09;15.40;57.00
29093;DHT22;16167;48.768;14.984;2023-04-24T11:30:42;15.30;56.30
29093;DHT22;16167;48.768;14.984;2023-04-24T11:33:10;15.20;59.50
29093;DHT22;16167;48.768;14.984;2023-04-24T11:35:39;15.20;35.10
29093;DHT22;16167;48.768;14.984;2023-04-24T11:38:07;15.20;34.50
29093;DHT22;16167;48.768;14.984;2023-04-24T11:40:38;15.40;33.00
29093;DHT22;16167;48.768;14.984;2023-04-24T11:43:07;15.60;44.70
29093;DHT22;16167;48.768;14.984;2023-04-24T11:45:36;15.70;45.10
29093;DHT22;16167;48.768;14.984;2023-04-24T11:48:04;15.80;31.00
29093;DHT22;16167;48.768;14.984;2023-04-24T11:50:32;15.90;43.70
29093;DHT22;16167;48.768;14.984;2023-04-24T11:53:00;16.00;41.10
29093;DHT22;16167;48.768;14.984;2023-04-24T11:55:28;15.70;59.70
29093;DHT22;16167;48.768;14.984;2023-04-24T11:57:57;15.50;42.30
29093;DHT22;16167;48.768;14.984;2023-04-24T12:00:28;15.30;49.40
29093;DHT22;16167;48.768;14.984;2023-04-24T12:03:06;15.10;45.50
29093;DHT22;16167;48.768;14.984;2023-04-24T12:05:34;15.10;26.30
29093;DHT22;16167;48.768;14.984;2023-04-24T12:08:03;15.10;27.00
29093;DHT22;16167;48.768;14.984;2023-04-24T12:10:32;15.30;26.90
29093;DHT22;16167;48.768;14.984;2023-04-24T12:13:01;15.40;25.70
29093;DHT22;16167;48.768;14.984;2023-04-24T12:15:30;15.50;25.60
29093;DHT22;16167;48.768;14.984;2023-04-24T12:17:58;15.90;12.40
29093;DHT22;16167;48.768;14.984;2023-04-24T12:20:27;16.30;12.10
29093;DHT22;16167;48.768;14.984;2023-04-24T12:22:55;16.30;14.00
29093;DHT22;16167;48.768;14.984;2023-04-24T12:25:24;16.20;12.50
29093;DHT22;16167;48.768;14.984;2023-04-24T12:27:53;16.00;11.60
29093;DHT22;16167;48.768;14.984;2023-04-24T12:30:25;15.70;12.30
29093;DHT22;16167;48.768;14.984;2023-04-24T12:32:56;15.50;12.50
29093;DHT22;16167;48.768;14.984;2023-04-24T12:35:26;15.20;11.80
29093;DHT22;16167;48.768;14.984;2023-04-24T12:37:54;15.00;8.70
29093;DHT22;16167;48.768;14.984;2023-04-24T12:40:24;14.70;13.80
29093;DHT22;16167;48.768;14.984;2023-04-24T12:42:52;14.30;18.20
29093;DHT22;16167;48.768;14.984;2023-04-24T12:45:23;13.90;15.90
29093;DHT22;16167;48.768;14.984;2023-04-24T12:47:51;13.60;10.50
29093;DHT22;16167;48.768;14.984;2023-04-24T12:50:21;13.30;14.80
29093;DHT22;16167;48.768;14.984;2023-04-24T12:52:48;13.10;15.10
29093;DHT22;16167;48.768;14.984;2023-04-24T12:55:16;13.00;9.80
29093;DHT22;16167;48.768;14.984;2023-04-24T12:57:44;12.90;3.70
29093;DHT22;16167;48.768;14.984;2023-04-24T13:00:12;12.80;4.50
29093;DHT22;16167;48.768;14.984;2023-04-24T13:02:42;12.70;6.20
29093;DHT22;16167;48.768;14.984;2023-04-24T13:05:10;12.70;6.50
29093;DHT22;16167;48.768;14.984;2023-04-24T13:07:41;12.70;2.70
29093;DHT22;16167;48.768;14.984;2023-04-24T13:10:09;12.70;4.90
29093;DHT22;16167;48.768;14.984;2023-04-24T13:12:37;12.60;5.00
29093;DHT22;16167;48.768;14.984;2023-04-24T13:15:06;12.60;11.90
29093;DHT22;16167;48.768;14.984;2023-04-24T13:17:34;12.40;19.10
29093;DHT22;16167;48.768;14.984;2023-04-24T13:20:02;12.30;17.10
29093;DHT22;16167;48.768;14.984;2023-04-24T13:22:30;12.10;23.10
29093;DHT22;16167;48.768;14.984;2023-04-24T13:24:59;12.00;26.90
29093;DHT22;16167;48.768;14.984;2023-04-24T13:27:27;11.90;21.70
29093;DHT22;16167;48.768;14.984;2023-04-24T13:29:55;11.80;22.40
29093;DHT22;16167;48.768;14.984;2023-04-24T13:32:23;11.80;29.40
29093;DHT22;16167;48.768;14.984;2023-04-24T13:34:51;11.80;37.20
29093;DHT22;16167;48.768;14.984;2023-04-24T13:37:19;11.80;31.20
29093;DHT22;16167;48.768;14.984;2023-04-24T13:39:48;11.90;43.20
29093;DHT22;16167;48.768;14.984;2023-04-24T13:42:19;11.90;36.70
29093;DHT22;16167;48.768;14.984;2023-04-24T13:44:47;11.90;38.10
29093;DHT22;16167;48.768;14.984;2023-04-24T13:47:15;11.80;35.70
29093;DHT22;16167;48.768;14.984;2023-04-24T13:49:43;11.70;29.90
29093;DHT22;16167;48.768;14.984;2023-04-24T13:52:11;11.60;43.50
29093;DHT22;16167;48.768;14.984;2023-04-24T13:54:38;11.60;45.60
29093;DHT22;16167;48.768;14.984;2023-04-24T13:57:06;11.60;38.40
29093;DHT22;16167;48.768;14.984;2023-04-24T13:59:36;11.50;28.90
29093;DHT22;16167;48.768;14.984;2023-04-24T14:02:03;11.40;29.40
29093;DHT22;16167;48.768;14.984;2023-04-24T14:04:32;11.40;22.20
29093;DHT22;16167;48.768;14.984;2023-04-24T14:07:00;11.30;27.60
29093;DHT22;16167;48.768;14.984;2023-04-24T14:09:28;11.20;24.20
29093;DHT22;16167;48.768;14.984;2023-04-24T14:11:56;11.10;24.00
29093;DHT22;16167;48.768;14.984;2023-04-24T14:14:24;11.00;26.40
29093;DHT22;16167;48.768;14.984;2023-04-24T14:16:53;10.90;30.90
29093;DHT22;16167;48.768;14.984;2023-04-24T14:19:21;11.00;25.10
29093;DHT22;16167;48.768;14.984;2023-04-24T14:21:49;11.00;32.10
29093;DHT22;16167;48.768;14.984;2023-04-24T14:24:17;11.10;35.10
29093;DHT22;16167;48.768;14.984;2023-04-24T14:26:45;11.20;24.30
29093;DHT22;16167;48.768;14.984;2023-04-24T14:29:12;11.30;28.40
29093;DHT22;16167;48.768;14.984;2023-04-24T14:31:41;11.40;30.40
29093;DHT22;16167;48.768;14.984;2023-04-24T14:34:10;11.50;41.30
29093;DHT22;16167;48.768;14.984;2023-04-24T14:36:38;11.70;60.40
29093;DHT22;16167;48.768;14.984;2023-04-24T14:39:07;11.90;57.60
29093;DHT22;16167;48.768;14.984;2023-04-24T14:41:34;12.00;52.20
29093;DHT22;16167;48.768;14.984;2023-04-24T14:44:03;12.00;40.10
29093;DHT22;16167;48.768;14.984;2023-04-24T14:46:32;12.10;30.10
29093;DHT22;16167;48.768;14.984;2023-04-24T14:49:00;12.00;16.70
29093;DHT22;16167;48.768;14.984;2023-04-24T14:51:29;11.90;28.50
29093;DHT22;16167;48.768;14.984;2023-04-24T14:53:58;11.80;20.00
29093;DHT22;16167;48.768;14.984;2023-04-24T14:56:26;11.70;23.70
29093;DHT22;16167;48.768;14.984;2023-04-24T14:58:54;11.60;33.10
29093;DHT22;16167;48.768;14.984;2023-04-24T15:01:22;11.50;26.90
29093;DHT22;16167;48.768;14.984;2023-04-24T15:03:50;11.50;34.60
29093;DHT22;16167;48.768;14.984;2023-04-24T15:06:19;11.50;43.60
29093;DHT22;16167;48.768;14.984;2023-04-24T15:08:48;11.60;54.60
29093;DHT22;16167;48.768;14.984;2023-04-24T15:11:16;11.70;47.20
29093;DHT22;16167;48.768;14.984;2023-04-24T15:13:44;11.90;34.20
29093;DHT22;16167;48.768;14.984;2023-04-24T15:16:13;12.00;45.60
29093;DHT22;16167;48.768;14.984;2023-04-24T15:18:41;12.10;41.60
29093;DHT22;16167;48.768;14.984;2023-04-24T15:21:09;12.30;29.40
29093;DHT22;16167;48.768;14.984;2023-04-24T15:23:39;12.40;40.90
29093;DHT22;16167;48.768;14.984;2023-04-24T15:26:08;12.50;41.00
29093;DHT22;16167;48.768;14.984;2023-04-24T15:28:36;12.50;28.80
29093;DHT22;16167;48.768;14.984;2023-04-24T15:31:04;12.60;23.30
29093;DHT22;16167;48.768;14.984;2023-04-24T15:33:32;12.70;35.70